Airport View

Enter AWOS ICAO identifier for current METAR.

ex. KFNL

KOOA 171315Z AUTO 17004KT 7SM BKN090 OVC100 03/01 A2993 RMK AO2 T00340013

17 Nov 2019 13:20

Frequency: 118.625

Phone: 641-933-4312

Other Area AWOS: KOTM - KPEA - KFFL - KOXV

TAF KOTM 171120Z 1712/1812 18005KT P6SM OVC090 FM171500 23005KT P6SM VCSH OVC050 TEMPO 1715/1717 5SM -RA BR OVC030 FM171700 31005KT P6SM VCSH OVC025 FM171800 32006KT P6SM OVC015 FM181000 00000KT P6SM BKN010